Main page
METAR-TAF:

METAR-TAF

Airports :

Bermuda, Bermuda

L.F. Wade International Airport

latitude: 32-22N, longitude: 064-41W, elevation: 6 m

Current weather observation

The report was made 11 minutes ago, at 05:55 UTC
Wind 16 kt from the East/Southeast
Temperature 23°C
Humidity 65%
Pressure 1022 hPa
Visibility 10 km or more
Few clouds at a height of 3000 ft

METAR: TXKF 240555Z 11016KT 9999 FEW030 23/16 Q1022

Time: 03:06 (06:06 UTC)

Forecast

The report was made 34 minutes ago, at 05:32 UTC
Forecast valid from 24 at 06 UTC to 25 at 06 UTC
Wind 18 kt from the East/Southeast
Visibility 10 km or more
Scattered clouds at a height of 3000 ft

TAF: TXKF 240532Z 2406/2506 11018KT 9999 SCT030

Weather observations and forecasts of more than 4000 airports (METAR and TAF reports).

The available stations are represented by yellow and red dots on the map.

Hover mouse over dot to see the name of the station.

Then click to see weather observations and forecasts.

To change the map : click on the green buttons with a black cross to zoom in, on the green button with a dash to zoom out, or on the green arrows for adjacent maps.


METAR-TAF: